Time;durP1;ratioP1;P1;durP2;ratioP2;P2;SDS_P1;SDS_P2;PMS_P1;PMS_P2;Temp;Humidity;BMP_temperature;BMP_pressure;BME280_temperature;BME280_humidity;BME280_pressure;Samples;Min_cycle;Max_cycle;Signal;HPM_P1;HPM_P2
2024/04/20 00:00:19;;;;;;;1.67;0.90;;;6.20;99.90;;;;;;5406078;26;19999;-80
2024/04/20 00:02:44;;;;;;;1.65;0.98;;;6.30;99.90;;;;;;5437239;26;19999;-79
2024/04/20 00:05:11;;;;;;;5.97;1.13;;;6.30;99.90;;;;;;5413622;26;20581;-81
2024/04/20 00:07:37;;;;;;;7.28;1.75;;;6.40;99.90;;;;;;5410942;26;20070;-79
2024/04/20 00:10:02;;;;;;;3.50;1.27;;;6.40;99.90;;;;;;5412628;26;20039;-79
2024/04/20 00:12:29;;;;;;;2.55;1.23;;;6.50;99.90;;;;;;5412911;26;20454;-82
2024/04/20 00:14:56;;;;;;;3.83;1.40;;;6.50;99.90;;;;;;5410609;26;19999;-80
2024/04/20 00:17:21;;;;;;;1.63;1.02;;;6.60;99.90;;;;;;5438912;26;20392;-79
2024/04/20 00:19:47;;;;;;;4.78;1.10;;;6.80;99.90;;;;;;5412902;26;20014;-82
2024/04/20 00:22:12;;;;;;;7.65;0.98;;;6.60;99.90;;;;;;5405610;26;20364;-79
2024/04/20 00:24:38;;;;;;;6.13;1.10;;;6.70;99.90;;;;;;5414496;26;20477;-80
2024/04/20 00:27:06;;;;;;;5.90;1.38;;;6.50;99.90;;;;;;5401971;26;20014;-79
2024/04/20 00:29:31;;;;;;;4.43;1.10;;;6.60;99.90;;;;;;5409961;26;20333;-81
2024/04/20 00:31:57;;;;;;;4.40;1.00;;;6.60;99.90;;;;;;5409512;26;20015;-79
2024/04/20 00:34:22;;;;;;;2.78;1.00;;;6.60;99.90;;;;;;5411999;26;20444;-81
2024/04/20 00:36:51;;;;;;;3.70;0.80;;;6.50;99.90;;;;;;5411802;26;20364;-81
2024/04/20 00:39:18;;;;;;;4.35;0.93;;;6.20;99.90;;;;;;5413004;26;20007;-81
2024/04/20 00:41:48;;;;;;;2.80;1.02;;;6.10;99.90;;;;;;5409977;26;20000;-80
2024/04/20 00:44:13;;;;;;;4.20;1.07;;;6.20;99.90;;;;;;5442249;26;19996;-79
2024/04/20 00:46:40;;;;;;;3.30;1.42;;;6.20;99.90;;;;;;5408500;26;20003;-80
2024/04/20 00:49:07;;;;;;;4.78;1.00;;;6.30;99.90;;;;;;5415467;26;20003;-79
2024/04/20 00:51:32;;;;;;;7.43;1.10;;;6.40;99.90;;;;;;5414659;26;20490;-80
2024/04/20 00:53:59;;;;;;;4.88;1.27;;;6.60;99.90;;;;;;5411033;26;20082;-80
2024/04/20 00:56:25;;;;;;;7.82;1.30;;;6.50;99.90;;;;;;5410679;26;19999;-79
2024/04/20 00:58:51;;;;;;;1.75;1.20;;;6.50;99.90;;;;;;5413842;26;20023;-81
2024/04/20 01:01:17;;;;;;;6.40;1.20;;;6.40;99.90;;;;;;5407826;26;20015;-78
2024/04/20 01:03:43;;;;;;;4.53;0.80;;;6.50;99.90;;;;;;5410155;26;20780;-80
2024/04/20 01:06:08;;;;;;;3.83;0.88;;;6.70;99.90;;;;;;5443867;26;20004;-81
2024/04/20 01:08:34;;;;;;;1.23;0.98;;;6.60;99.90;;;;;;5420754;26;20350;-80
2024/04/20 01:11:00;;;;;;;2.33;0.90;;;6.50;99.90;;;;;;5412000;26;20004;-80
2024/04/20 01:13:28;;;;;;;3.70;1.33;;;6.50;99.90;;;;;;5414878;26;20000;-78
2024/04/20 01:15:54;;;;;;;5.75;1.00;;;6.60;99.90;;;;;;5412992;26;20014;-82
2024/04/20 01:18:20;;;;;;;4.75;1.55;;;6.50;99.90;;;;;;5414115;26;20015;-79
2024/04/20 01:20:47;;;;;;;3.50;1.00;;;6.50;99.90;;;;;;5407037;26;20040;-79
2024/04/20 01:23:13;;;;;;;2.70;1.02;;;6.40;99.90;;;;;;5412588;26;20008;-82
2024/04/20 01:25:48;;;;;;;2.15;0.88;;;6.60;99.90;;;;;;5413477;26;20010;-80
2024/04/20 01:28:14;;;;;;;1.70;0.80;;;6.60;99.90;;;;;;5410566;26;20486;-82
2024/04/20 01:30:40;;;;;;;2.33;0.93;;;6.50;99.90;;;;;;5415109;26;19996;-81
2024/04/20 01:33:05;;;;;;;1.00;0.80;;;6.30;99.90;;;;;;5413405;26;20330;-79
2024/04/20 01:35:31;;;;;;;1.20;0.80;;;6.40;99.90;;;;;;5410880;26;20093;-82
2024/04/20 01:37:56;;;;;;;2.08;0.90;;;6.40;99.90;;;;;;5413348;26;19995;-79
2024/04/20 01:40:22;;;;;;;1.67;0.73;;;6.50;99.90;;;;;;5411098;26;19999;-80
2024/04/20 01:42:48;;;;;;;4.07;0.88;;;6.50;99.90;;;;;;5412795;26;19999;-79
2024/04/20 01:45:14;;;;;;;0.70;0.70;;;6.40;99.90;;;;;;5413388;26;19995;-82
2024/04/20 01:47:40;;;;;;;2.75;0.90;;;6.40;99.90;;;;;;5415193;26;20433;-79
2024/04/20 01:50:06;;;;;;;1.88;0.57;;;6.30;99.90;;;;;;5414633;26;20369;-79
2024/04/20 01:52:32;;;;;;;0.70;0.70;;;6.50;99.90;;;;;;5412971;26;20007;-80
2024/04/20 01:54:58;;;;;;;3.15;1.10;;;6.40;99.90;;;;;;5413759;26;19999;-79
2024/04/20 01:57:24;;;;;;;1.33;1.23;;;6.30;99.90;;;;;;5413775;26;19995;-80
2024/04/20 01:59:49;;;;;;;1.45;0.90;;;6.30;99.90;;;;;;5423458;26;20449;-79
2024/04/20 02:02:15;;;;;;;3.35;1.00;;;6.40;99.90;;;;;;5408313;26;20718;-79
2024/04/20 02:04:40;;;;;;;1.85;1.10;;;6.30;99.90;;;;;;5413084;26;20072;-82
2024/04/20 02:07:06;;;;;;;2.22;0.80;;;6.50;99.90;;;;;;5414665;26;20000;-80
2024/04/20 02:09:33;;;;;;;2.72;0.80;;;6.50;99.90;;;;;;5412995;26;20007;-81
2024/04/20 02:11:58;;;;;;;3.80;1.27;;;6.50;99.90;;;;;;5413355;26;20019;-81
2024/04/20 02:14:24;;;;;;;2.67;0.90;;;6.50;99.90;;;;;;5411719;26;20015;-81
2024/04/20 02:16:50;;;;;;;11.35;1.10;;;6.20;99.90;;;;;;5414545;26;20010;-80
2024/04/20 02:19:16;;;;;;;2.15;1.10;;;6.30;99.90;;;;;;5415196;26;20000;-79
2024/04/20 02:21:41;;;;;;;2.97;1.00;;;6.40;99.90;;;;;;5412581;26;20007;-80
2024/04/20 02:24:07;;;;;;;4.18;1.00;;;6.40;99.90;;;;;;5398299;26;20080;-81
2024/04/20 02:26:34;;;;;;;4.35;1.17;;;6.40;99.90;;;;;;5411362;26;19991;-79
2024/04/20 02:29:00;;;;;;;5.68;1.27;;;6.30;99.90;;;;;;5413963;26;20692;-80
2024/04/20 02:31:25;;;;;;;7.82;1.13;;;6.20;99.90;;;;;;5413877;26;20006;-82
2024/04/20 02:33:51;;;;;;;3.03;1.13;;;6.30;99.90;;;;;;5412587;26;20332;-81
2024/04/20 02:36:17;;;;;;;6.15;1.40;;;6.30;99.90;;;;;;5442755;26;19995;-81
2024/04/20 02:38:42;;;;;;;7.00;1.45;;;6.50;99.90;;;;;;5409607;26;20000;-80
2024/04/20 02:41:08;;;;;;;7.43;1.13;;;6.40;99.90;;;;;;5408790;26;20000;-80
2024/04/20 02:43:33;;;;;;;1.67;0.95;;;6.30;99.90;;;;;;5413403;26;20022;-79
2024/04/20 02:45:59;;;;;;;4.63;1.48;;;6.30;99.90;;;;;;5413403;26;20014;-79
2024/04/20 02:48:25;;;;;;;6.05;1.17;;;6.30;99.90;;;;;;5414402;26;20003;-79
2024/04/20 02:50:50;;;;;;;1.30;1.20;;;6.30;99.90;;;;;;5413957;26;20495;-79
2024/04/20 02:53:16;;;;;;;3.00;0.80;;;6.20;99.90;;;;;;5413760;26;20341;-81
2024/04/20 02:55:42;;;;;;;4.57;1.25;;;6.30;99.90;;;;;;5405043;26;22468;-80
2024/04/20 02:58:09;;;;;;;2.80;0.60;;;6.20;99.90;;;;;;5407535;26;20014;-82
2024/04/20 03:00:35;;;;;;;1.95;1.00;;;6.30;99.90;;;;;;5410566;26;20007;-80
2024/04/20 03:03:00;;;;;;;1.98;0.93;;;6.40;99.90;;;;;;5409647;26;19995;-79
2024/04/20 03:05:26;;;;;;;1.63;1.00;;;6.20;99.90;;;;;;5410914;26;20087;-80
2024/04/20 03:07:51;;;;;;;3.03;1.17;;;6.10;99.90;;;;;;5412590;26;19995;-79
2024/04/20 03:10:17;;;;;;;5.43;1.30;;;6.20;99.90;;;;;;5414154;26;20457;-80
2024/04/20 03:12:43;;;;;;;1.25;1.05;;;6.10;99.90;;;;;;5411891;26;20342;-81
2024/04/20 03:15:08;;;;;;;1.88;1.10;;;6.10;99.90;;;;;;5411898;26;19996;-81
2024/04/20 03:17:34;;;;;;;1.83;0.77;;;6.40;99.90;;;;;;5412782;26;20009;-79
2024/04/20 03:19:59;;;;;;;4.80;0.93;;;6.30;99.90;;;;;;5405736;26;20004;-82
2024/04/20 03:22:25;;;;;;;4.55;1.00;;;6.10;99.90;;;;;;5413641;26;20004;-78
2024/04/20 03:24:50;;;;;;;5.63;1.25;;;6.10;99.90;;;;;;5441959;26;19996;-80
2024/04/20 03:27:16;;;;;;;1.80;0.98;;;5.90;99.90;;;;;;5403832;26;20047;-80
2024/04/20 03:29:41;;;;;;;4.13;1.00;;;6.20;99.90;;;;;;5411648;26;20420;-82
2024/04/20 03:32:07;;;;;;;1.33;0.75;;;6.20;99.90;;;;;;5409221;26;20010;-80
2024/04/20 03:34:32;;;;;;;7.53;1.15;;;6.00;99.90;;;;;;5406335;26;20008;-79
2024/04/20 03:36:58;;;;;;;2.20;0.90;;;6.20;99.90;;;;;;5413585;26;20055;-81
2024/04/20 03:39:23;;;;;;;2.50;1.13;;;6.30;99.90;;;;;;5406033;26;20353;-81
2024/04/20 03:41:49;;;;;;;2.92;1.02;;;6.40;99.90;;;;;;5406998;26;19999;-81
2024/04/20 03:44:15;;;;;;;2.13;0.80;;;6.40;99.90;;;;;;5406533;26;20095;-81
2024/04/20 03:46:41;;;;;;;0.80;0.70;;;6.30;99.90;;;;;;5412425;26;19996;-81
2024/04/20 03:49:06;;;;;;;5.55;1.08;;;6.10;99.90;;;;;;5405045;26;20074;-80
2024/04/20 03:51:32;;;;;;;3.15;0.90;;;6.20;99.90;;;;;;5412944;26;20011;-79
2024/04/20 03:54:01;;;;;;;6.22;1.10;;;6.30;99.90;;;;;;5410509;26;20424;-82
2024/04/20 03:56:28;;;;;;;1.67;0.70;;;6.20;99.90;;;;;;5408133;26;19999;-80
2024/04/20 03:58:53;;;;;;;2.03;1.40;;;6.20;99.90;;;;;;5408334;26;20072;-80
2024/04/20 04:01:19;;;;;;;1.85;1.10;;;6.30;99.90;;;;;;5410414;26;20004;-80
2024/04/20 04:03:44;;;;;;;5.18;0.73;;;6.20;99.90;;;;;;5409533;26;20003;-80
2024/04/20 04:06:10;;;;;;;5.50;1.15;;;6.10;99.90;;;;;;5412532;26;20368;-80
2024/04/20 04:08:36;;;;;;;1.33;1.13;;;6.20;99.90;;;;;;5407183;26;20385;-79
2024/04/20 04:11:01;;;;;;;4.13;0.85;;;6.20;99.90;;;;;;5405617;26;20504;-81
2024/04/20 04:13:27;;;;;;;5.03;1.20;;;6.20;99.90;;;;;;5404670;26;20100;-80
2024/04/20 04:15:53;;;;;;;5.47;1.60;;;6.20;99.90;;;;;;5414690;26;20027;-82
2024/04/20 04:18:21;;;;;;;1.73;1.00;;;6.30;99.90;;;;;;5412212;26;20003;-81
2024/04/20 04:20:50;;;;;;;2.60;1.10;;;6.20;99.90;;;;;;5410728;26;20613;-80
2024/04/20 04:23:15;;;;;;;3.72;1.05;;;6.00;99.90;;;;;;5412057;26;20000;-80
2024/04/20 04:25:42;;;;;;;1.15;0.93;;;6.20;99.90;;;;;;5404287;26;20022;-82
2024/04/20 04:28:08;;;;;;;3.10;0.95;;;6.20;99.90;;;;;;5406383;26;20003;-81
2024/04/20 04:30:34;;;;;;;8.40;1.20;;;6.10;99.90;;;;;;5418607;26;20028;-79
2024/04/20 04:33:00;;;;;;;1.77;0.80;;;6.10;99.90;;;;;;5409612;26;20010;-80
2024/04/20 04:35:26;;;;;;;4.63;1.40;;;6.10;99.90;;;;;;5410235;26;20000;-79
2024/04/20 04:37:52;;;;;;;1.20;1.05;;;6.30;99.90;;;;;;5407006;26;20076;-80
2024/04/20 04:40:18;;;;;;;6.25;1.15;;;6.40;99.90;;;;;;5408684;26;20007;-82
2024/04/20 04:42:44;;;;;;;4.95;1.02;;;6.20;99.90;;;;;;5409315;26;19999;-80
2024/04/20 04:45:09;;;;;;;6.80;1.40;;;6.20;99.90;;;;;;5410321;26;20457;-81
2024/04/20 04:47:35;;;;;;;5.70;1.48;;;6.30;99.90;;;;;;5410333;26;20717;-83
2024/04/20 04:50:00;;;;;;;5.57;1.30;;;6.40;99.90;;;;;;5409884;26;20418;-82
2024/04/20 04:52:26;;;;;;;7.63;1.40;;;6.20;99.90;;;;;;5411772;26;20526;-82
2024/04/20 04:54:51;;;;;;;3.42;1.23;;;6.40;99.90;;;;;;5401232;26;20408;-83
2024/04/20 04:57:17;;;;;;;4.90;1.40;;;6.50;99.90;;;;;;5406948;26;20453;-81
2024/04/20 04:59:42;;;;;;;7.00;1.77;;;6.50;99.90;;;;;;5407574;26;20449;-80
2024/04/20 05:02:08;;;;;;;5.28;1.48;;;6.40;99.90;;;;;;5410246;26;20492;-81
2024/04/20 05:04:34;;;;;;;4.82;1.20;;;6.30;99.90;;;;;;5410205;26;20345;-79
2024/04/20 05:07:00;;;;;;;5.47;1.52;;;6.30;99.90;;;;;;5411783;26;19999;-79
2024/04/20 05:09:25;;;;;;;6.32;1.60;;;6.20;99.90;;;;;;5412206;26;20019;-80
2024/04/20 05:11:51;;;;;;;12.75;1.27;;;6.20;99.90;;;;;;5410331;26;19999;-82
2024/04/20 05:14:17;;;;;;;2.85;1.50;;;6.30;99.90;;;;;;5405333;26;20070;-79
2024/04/20 05:16:42;;;;;;;3.60;1.40;;;6.20;99.90;;;;;;5406477;26;20596;-80
2024/04/20 05:19:08;;;;;;;3.67;1.23;;;6.10;99.90;;;;;;5411289;26;19996;-82
2024/04/20 05:21:33;;;;;;;4.65;1.50;;;6.10;99.90;;;;;;5408296;26;19999;-82
2024/04/20 05:24:02;;;;;;;6.10;1.20;;;6.20;99.90;;;;;;5411186;26;20000;-80
2024/04/20 05:26:28;;;;;;;4.63;1.05;;;6.20;99.90;;;;;;5408989;26;20719;-79
2024/04/20 05:28:54;;;;;;;6.38;1.30;;;6.10;99.90;;;;;;5440566;26;20013;-81
2024/04/20 05:31:20;;;;;;;2.30;1.13;;;6.20;99.90;;;;;;5414166;26;20000;-80
2024/04/20 05:33:45;;;;;;;2.08;1.13;;;6.00;99.90;;;;;;5414442;26;20000;-79
2024/04/20 05:36:12;;;;;;;4.30;1.50;;;6.20;99.90;;;;;;5414430;26;19995;-80
2024/04/20 05:38:37;;;;;;;6.50;1.42;;;6.20;99.90;;;;;;5413971;26;20080;-79
2024/04/20 05:41:04;;;;;;;2.08;1.20;;;6.20;99.90;;;;;;5406699;26;20015;-81
2024/04/20 05:43:30;;;;;;;6.13;1.60;;;6.30;99.90;;;;;;5429760;26;20339;-81
2024/04/20 05:45:55;;;;;;;2.47;1.27;;;6.40;99.90;;;;;;5419470;26;20080;-79
2024/04/20 05:48:21;;;;;;;3.67;1.50;;;6.40;99.90;;;;;;5415244;26;20018;-80
2024/04/20 05:50:46;;;;;;;3.00;1.45;;;6.30;99.90;;;;;;5405948;26;20003;-80
2024/04/20 05:53:12;;;;;;;2.08;1.48;;;6.50;99.90;;;;;;5414189;26;20000;-82
2024/04/20 05:55:38;;;;;;;5.38;1.25;;;6.40;99.90;;;;;;5414288;26;20457;-82
2024/04/20 05:58:05;;;;;;;6.10;1.42;;;6.40;99.90;;;;;;5414535;26;20007;-82
2024/04/20 06:00:30;;;;;;;4.90;1.52;;;6.40;99.90;;;;;;5411205;26;20019;-83
2024/04/20 06:02:56;;;;;;;5.85;1.67;;;6.30;99.90;;;;;;5413307;26;20004;-83
2024/04/20 06:05:22;;;;;;;5.65;1.33;;;6.40;99.90;;;;;;5414231;26;20000;-82
2024/04/20 06:07:47;;;;;;;7.35;1.73;;;6.40;99.90;;;;;;5412249;26;20003;-81
2024/04/20 06:10:13;;;;;;;5.75;1.85;;;6.30;99.90;;;;;;5411227;26;20016;-83
2024/04/20 06:12:39;;;;;;;6.28;2.47;;;6.50;99.90;;;;;;5439026;26;19999;-83
2024/04/20 06:15:05;;;;;;;10.02;1.45;;;6.50;99.90;;;;;;5411322;26;20007;-79
2024/04/20 06:17:31;;;;;;;2.38;1.27;;;6.50;99.90;;;;;;5408626;26;20004;-81
2024/04/20 06:19:56;;;;;;;4.82;1.42;;;6.50;99.90;;;;;;5412968;26;20035;-80
2024/04/20 06:22:22;;;;;;;2.75;1.45;;;6.60;99.90;;;;;;5413389;26;20002;-82
2024/04/20 06:24:52;;;;;;;9.07;1.30;;;6.50;99.90;;;;;;5414407;26;20082;-82
2024/04/20 06:27:18;;;;;;;5.75;1.38;;;6.60;99.90;;;;;;5421205;26;20045;-82
2024/04/20 06:29:44;;;;;;;2.05;1.17;;;6.80;99.90;;;;;;5417623;26;20464;-84
2024/04/20 06:32:09;;;;;;;3.13;1.27;;;6.60;99.90;;;;;;5416524;26;20003;-80
2024/04/20 06:34:35;;;;;;;3.00;1.30;;;6.60;99.90;;;;;;5415360;26;20007;-82
2024/04/20 06:37:00;;;;;;;3.38;1.05;;;6.60;99.90;;;;;;5414003;26;20014;-81
2024/04/20 06:39:27;;;;;;;1.85;1.08;;;6.70;99.90;;;;;;5404878;26;20020;-81
2024/04/20 06:41:54;;;;;;;4.05;1.00;;;6.80;99.90;;;;;;5445616;26;20068;-81
2024/04/20 06:44:20;;;;;;;4.05;1.30;;;6.80;99.90;;;;;;5412614;26;20070;-80
2024/04/20 06:46:46;;;;;;;3.20;1.48;;;6.80;99.90;;;;;;5413081;26;20016;-81
2024/04/20 06:49:13;;;;;;;1.73;1.02;;;6.90;99.90;;;;;;5417668;26;20072;-82
2024/04/20 06:51:38;;;;;;;1.20;1.08;;;6.80;99.90;;;;;;5417486;26;20011;-82
2024/04/20 06:54:04;;;;;;;9.63;1.58;;;6.80;99.90;;;;;;5411778;26;20007;-81
2024/04/20 06:56:29;;;;;;;2.20;1.30;;;6.90;99.90;;;;;;5421134;26;19996;-81
2024/04/20 06:58:55;;;;;;;1.92;1.15;;;7.00;99.90;;;;;;5415621;26;20044;-82
2024/04/20 07:01:21;;;;;;;3.65;1.40;;;6.90;99.90;;;;;;5402868;26;20000;-80
2024/04/20 07:03:46;;;;;;;3.10;1.23;;;6.90;99.90;;;;;;5411186;26;20341;-80
2024/04/20 07:06:12;;;;;;;3.92;1.30;;;6.70;99.90;;;;;;5410817;26;19999;-81
2024/04/20 07:08:37;;;;;;;2.20;1.15;;;6.80;99.90;;;;;;5416612;26;20004;-82
2024/04/20 07:11:05;;;;;;;2.83;1.38;;;6.90;99.90;;;;;;5405986;26;19996;-83
2024/04/20 07:13:34;;;;;;;3.70;1.20;;;7.00;99.90;;;;;;5406513;26;20027;-80
2024/04/20 07:16:00;;;;;;;9.07;2.00;;;7.20;99.90;;;;;;5410931;26;19996;-81
2024/04/20 07:18:26;;;;;;;3.25;1.08;;;7.40;99.90;;;;;;5408898;26;20015;-82
2024/04/20 07:20:52;;;;;;;2.13;1.50;;;7.60;99.90;;;;;;5415281;26;20004;-83
2024/04/20 07:23:17;;;;;;;3.95;1.58;;;7.50;99.90;;;;;;5400798;26;19999;-83
2024/04/20 07:25:44;;;;;;;3.53;1.20;;;7.40;99.90;;;;;;5397172;26;20004;-83
2024/04/20 07:28:09;;;;;;;3.25;1.30;;;7.40;99.90;;;;;;5413622;26;20472;-82
2024/04/20 07:30:35;;;;;;;2.95;1.42;;;7.60;99.90;;;;;;5395022;26;19999;-80
2024/04/20 07:33:01;;;;;;;3.75;1.60;;;7.60;99.90;;;;;;5406034;26;19995;-80
2024/04/20 07:35:26;;;;;;;4.43;1.25;;;7.80;99.90;;;;;;5398084;26;20003;-81
2024/04/20 07:37:52;;;;;;;4.03;1.48;;;8.00;99.90;;;;;;5412088;26;20007;-80
2024/04/20 07:40:17;;;;;;;2.25;1.30;;;7.80;99.90;;;;;;5413558;26;20003;-84
2024/04/20 07:42:43;;;;;;;3.85;1.13;;;7.70;99.90;;;;;;5396318;26;20012;-82
2024/04/20 07:45:09;;;;;;;4.57;1.45;;;7.50;99.90;;;;;;5422607;26;20065;-82
2024/04/20 07:47:35;;;;;;;4.97;1.42;;;7.40;99.90;;;;;;5408522;26;20031;-82
2024/04/20 07:50:00;;;;;;;6.13;1.35;;;7.50;99.90;;;;;;5406999;26;20194;-81
2024/04/20 07:52:26;;;;;;;1.95;1.33;;;7.70;99.90;;;;;;5434690;26;20004;-81
2024/04/20 07:54:51;;;;;;;4.35;1.30;;;7.70;99.90;;;;;;5395052;26;20000;-82
2024/04/20 07:57:17;;;;;;;1.90;1.20;;;7.70;99.90;;;;;;5402185;26;20000;-83
2024/04/20 07:59:45;;;;;;;4.53;1.30;;;7.70;99.90;;;;;;5398756;26;20445;-83
2024/04/20 08:02:10;;;;;;;2.05;1.25;;;7.80;99.90;;;;;;5408190;26;20016;-82
2024/04/20 08:04:37;;;;;;;9.02;1.73;;;8.00;99.90;;;;;;5409280;26;20740;-81
2024/04/20 08:07:02;;;;;;;3.67;1.50;;;8.10;99.90;;;;;;5406993;26;20014;-81
2024/04/20 08:09:28;;;;;;;13.10;1.70;;;8.30;99.90;;;;;;5413670;26;20352;-84
2024/04/20 08:11:54;;;;;;;5.30;1.60;;;8.10;99.90;;;;;;5404339;26;20082;-83
2024/04/20 08:14:19;;;;;;;1.63;1.10;;;7.90;99.90;;;;;;5404265;26;20012;-81
2024/04/20 08:16:45;;;;;;;1.85;0.98;;;7.90;99.90;;;;;;5395501;26;20080;-81
2024/04/20 08:19:10;;;;;;;2.25;1.23;;;8.20;99.90;;;;;;5398037;26;20015;-82
2024/04/20 08:21:36;;;;;;;3.90;1.05;;;8.10;99.90;;;;;;5432709;26;20013;-81
2024/04/20 08:24:01;;;;;;;4.20;1.10;;;8.50;99.90;;;;;;5397311;26;20105;-82
2024/04/20 08:26:29;;;;;;;2.15;1.13;;;8.40;99.90;;;;;;5408492;26;20062;-83
2024/04/20 08:28:54;;;;;;;2.83;1.23;;;8.30;99.90;;;;;;5397720;26;20480;-83
2024/04/20 08:31:20;;;;;;;3.28;1.27;;;8.10;99.90;;;;;;5403729;26;20000;-83
2024/04/20 08:33:45;;;;;;;1.67;1.30;;;7.90;99.90;;;;;;5403128;26;20000;-79
2024/04/20 08:36:11;;;;;;;2.97;1.13;;;7.90;99.90;;;;;;5407164;26;19999;-81
2024/04/20 08:38:36;;;;;;;5.65;0.95;;;7.80;99.90;;;;;;5402611;26;20012;-82
2024/04/20 08:41:08;;;;;;;4.03;1.20;;;7.60;99.90;;;;;;5402761;26;20468;-82
2024/04/20 08:43:36;;;;;;;1.77;1.17;;;7.80;99.90;;;;;;5403033;26;20026;-83
2024/04/20 08:46:05;;;;;;;6.65;1.88;;;7.80;99.90;;;;;;5399744;26;20056;-84
2024/04/20 08:48:31;;;;;;;5.28;1.30;;;7.70;99.90;;;;;;5397638;26;20039;-81
2024/04/20 08:51:02;;;;;;;3.15;1.10;;;7.70;99.90;;;;;;5408635;26;19999;-82
2024/04/20 08:53:32;;;;;;;2.15;1.30;;;7.60;99.90;;;;;;5390385;26;20001;-84
2024/04/20 08:56:04;;;;;;;3.85;1.25;;;7.70;99.90;;;;;;5399182;26;20023;-83
2024/04/20 08:58:30;;;;;;;1.63;1.02;;;7.90;99.90;;;;;;5400462;26;20425;-82
2024/04/20 09:00:58;;;;;;;3.33;1.02;;;7.80;99.90;;;;;;5407742;26;19995;-84
2024/04/20 09:03:24;;;;;;;6.53;1.30;;;7.80;99.90;;;;;;5400439;26;20004;-87
2024/04/20 09:05:53;;;;;;;3.25;1.00;;;7.70;99.90;;;;;;5413542;26;19999;-87
2024/04/20 09:08:19;;;;;;;2.38;0.90;;;7.70;99.90;;;;;;5407393;26;20010;-89
2024/04/20 09:10:45;;;;;;;2.72;1.15;;;7.60;99.90;;;;;;5413844;26;20023;-86
2024/04/20 09:13:14;;;;;;;1.85;1.08;;;7.60;99.90;;;;;;5402178;26;19996;-86
2024/04/20 09:15:40;;;;;;;2.35;1.10;;;7.60;99.90;;;;;;5413383;26;20007;-87
2024/04/20 09:18:06;;;;;;;3.35;1.05;;;7.60;99.90;;;;;;5408384;26;19996;-86
2024/04/20 09:20:31;;;;;;;2.30;1.10;;;7.80;99.90;;;;;;5419044;26;20067;-85
2024/04/20 09:23:07;;;;;;;1.75;0.98;;;7.80;99.90;;;;;;5410959;26;19996;-88
2024/04/20 09:25:37;;;;;;;2.00;1.08;;;8.00;99.90;;;;;;5429812;26;20077;-86
2024/04/20 09:28:04;;;;;;;4.10;0.85;;;7.90;99.90;;;;;;5410390;26;20425;-88
2024/04/20 09:30:31;;;;;;;0.98;0.88;;;8.00;99.90;;;;;;5401571;26;20008;-85
2024/04/20 09:32:57;;;;;;;3.90;1.20;;;8.00;99.90;;;;;;5413120;26;20007;-88
2024/04/20 09:35:24;;;;;;;4.85;0.90;;;7.90;99.90;;;;;;5447011;26;20351;-88
2024/04/20 09:37:51;;;;;;;4.15;1.27;;;7.90;99.90;;;;;;5415628;26;20080;-87
2024/04/20 09:40:17;;;;;;;2.97;1.20;;;7.90;99.90;;;;;;5407056;26;19999;-88
2024/04/20 09:42:46;;;;;;;1.08;0.90;;;7.90;99.90;;;;;;5414708;26;20015;-87
2024/04/20 09:45:12;;;;;;;2.30;1.10;;;7.80;99.90;;;;;;5441861;26;19999;-86
2024/04/20 09:47:40;;;;;;;1.05;0.90;;;7.80;99.90;;;;;;5420940;26;20083;-90
2024/04/20 09:50:12;;;;;;;2.35;1.20;;;7.80;99.90;;;;;;5409859;26;20010;-90
2024/04/20 09:52:38;;;;;;;3.83;1.20;;;7.60;99.90;;;;;;5436807;26;20457;-90
2024/04/20 09:55:18;;;;;;;6.15;1.30;;;7.60;99.90;;;;;;5412114;26;20014;-87
2024/04/20 09:57:44;;;;;;;3.63;0.85;;;7.70;99.90;;;;;;5405065;26;20460;-89
2024/04/20 10:00:11;;;;;;;0.80;0.80;;;8.10;99.90;;;;;;5413045;26;20110;-88
2024/04/20 10:02:38;;;;;;;3.42;1.00;;;8.10;99.90;;;;;;5410833;26;20015;-88
2024/04/20 10:05:04;;;;;;;4.28;1.30;;;8.10;99.90;;;;;;5416646;26;20467;-87
2024/04/20 10:07:32;;;;;;;2.92;1.15;;;8.00;99.90;;;;;;5415415;26;20010;-89
2024/04/20 10:10:04;;;;;;;1.27;1.08;;;8.00;99.90;;;;;;5409994;26;20018;-89
2024/04/20 10:12:30;;;;;;;2.45;1.52;;;7.90;99.90;;;;;;5402307;26;20035;-87
2024/04/20 10:14:57;;;;;;;2.08;1.10;;;7.90;99.90;;;;;;5410561;26;20004;-88
2024/04/20 10:17:25;;;;;;;1.15;0.93;;;8.00;99.90;;;;;;5400631;26;19999;-87
2024/04/20 10:19:52;;;;;;;2.17;1.00;;;8.00;99.90;;;;;;5431664;26;20010;-89
2024/04/20 10:22:21;;;;;;;1.67;0.93;;;8.10;99.90;;;;;;5408487;26;20001;-89
2024/04/20 10:25:02;;;;;;;3.97;1.42;;;8.30;99.90;;;;;;5413492;26;19999;-87
2024/04/20 10:27:31;;;;;;;3.97;1.40;;;8.30;99.90;;;;;;5412635;26;20077;-90
2024/04/20 10:30:18;;;;;;;3.92;1.10;;;8.20;99.90;;;;;;5411373;26;19999;-89
2024/04/20 10:32:44;;;;;;;5.25;1.10;;;8.10;99.90;;;;;;5413930;26;19996;-88
2024/04/20 10:35:10;;;;;;;1.60;1.20;;;8.00;99.90;;;;;;5435813;26;20036;-87
2024/04/20 10:37:35;;;;;;;7.03;1.38;;;8.00;99.90;;;;;;5401067;26;20007;-87
2024/04/20 10:40:12;;;;;;;2.25;1.00;;;7.90;99.90;;;;;;5406620;26;20011;-89
2024/04/20 10:42:38;;;;;;;3.47;1.13;;;7.80;99.90;;;;;;5407275;26;20333;-89
2024/04/20 10:45:10;;;;;;;1.98;1.30;;;7.80;99.90;;;;;;5408500;26;20547;-89
2024/04/20 10:47:37;;;;;;;4.45;1.27;;;7.90;99.90;;;;;;5396521;26;20484;-88
2024/04/20 10:50:03;;;;;;;1.25;1.00;;;8.10;99.90;;;;;;5405642;26;20010;-89
2024/04/20 10:52:28;;;;;;;5.30;1.70;;;8.20;99.90;;;;;;5443630;26;20050;-89
2024/04/20 10:54:54;;;;;;;3.53;1.33;;;8.30;99.90;;;;;;5402960;26;20000;-88
2024/04/20 10:57:24;;;;;;;4.72;1.13;;;8.40;99.90;;;;;;5432943;26;20016;-89
2024/04/20 10:59:50;;;;;;;;;;;8.40;99.90;;;;;;5397754;26;20007;-87
2024/04/20 11:02:16;;;;;;;3.00;1.20;;;8.40;99.90;;;;;;5407652;26;19931;-87
2024/04/20 11:04:42;;;;;;;2.20;1.10;;;8.60;99.90;;;;;;5410877;26;20016;-88
2024/04/20 11:07:08;;;;;;;2.20;1.10;;;8.70;99.90;;;;;;5441568;26;20006;-89
2024/04/20 11:09:35;;;;;;;7.80;1.58;;;8.90;99.90;;;;;;5411232;26;19996;-87
2024/04/20 11:12:02;;;;;;;1.73;1.15;;;9.00;99.90;;;;;;5411086;26;20011;-88
2024/04/20 11:14:28;;;;;;;1.40;0.98;;;8.80;99.90;;;;;;5409339;26;20631;-89
2024/04/20 11:16:54;;;;;;;2.50;1.40;;;8.80;99.90;;;;;;5409505;26;20449;-89
2024/04/20 11:19:20;;;;;;;1.20;1.10;;;8.80;99.90;;;;;;5406281;26;19997;-87
2024/04/20 11:21:46;;;;;;;2.65;1.50;;;8.80;99.90;;;;;;5401032;26;20327;-89
2024/04/20 11:24:12;;;;;;;2.58;1.33;;;8.70;99.90;;;;;;5431971;26;19996;-87
2024/04/20 11:26:37;;;;;;;3.47;1.15;;;8.60;99.90;;;;;;5415437;26;20020;-89
2024/04/20 11:29:04;;;;;;;3.25;1.70;;;8.60;99.90;;;;;;5406576;26;19995;-89
2024/04/20 11:31:30;;;;;;;5.43;1.42;;;8.50;99.90;;;;;;5407791;26;20008;-87
2024/04/20 11:33:55;;;;;;;1.67;1.40;;;8.40;99.90;;;;;;5402575;26;20033;-89
2024/04/20 11:36:21;;;;;;;3.45;1.80;;;8.30;99.90;;;;;;5409761;26;20011;-88
2024/04/20 11:38:47;;;;;;;1.75;1.35;;;8.20;99.90;;;;;;5408023;26;20007;-87
2024/04/20 11:41:24;;;;;;;5.57;1.60;;;8.10;99.90;;;;;;5405759;26;19999;-88
2024/04/20 11:43:50;;;;;;;6.05;1.88;;;8.10;99.90;;;;;;5442137;26;20003;-87
2024/04/20 11:46:16;;;;;;;2.20;1.23;;;8.10;99.90;;;;;;5399849;26;20052;-88
2024/04/20 11:48:42;;;;;;;3.13;1.65;;;8.20;99.90;;;;;;5415941;26;19999;-88
2024/04/20 11:54:20;;;;;;;1.92;1.23;;;8.20;99.90;;;;;;5397940;26;20360;-88
2024/04/20 11:56:47;;;;;;;3.30;1.27;;;8.20;99.90;;;;;;5398080;26;20028;-88
2024/04/20 11:59:13;;;;;;;3.72;1.80;;;8.50;99.90;;;;;;5404869;26;20011;-85
2024/04/20 12:01:40;;;;;;;1.70;1.38;;;8.60;99.90;;;;;;5389397;26;20035;-85
2024/04/20 12:04:07;;;;;;;5.32;1.52;;;9.00;99.90;;;;;;5423465;26;20469;-88
2024/04/20 12:06:33;;;;;;;3.88;1.40;;;9.30;99.90;;;;;;5403921;26;20004;-90
2024/04/20 12:08:58;;;;;;;3.13;1.60;;;9.30;99.90;;;;;;5416288;26;20004;-89
2024/04/20 12:11:25;;;;;;;6.25;1.45;;;9.20;99.90;;;;;;5399533;26;20368;-88
2024/04/20 12:13:50;;;;;;;1.95;1.70;;;9.00;99.90;;;;;;5396250;26;20003;-88
2024/04/20 12:16:16;;;;;;;8.30;1.33;;;8.90;99.90;;;;;;5399136;26;20004;-90
2024/04/20 12:18:43;;;;;;;1.50;1.05;;;8.70;99.90;;;;;;5433392;26;20000;-85
2024/04/20 12:21:13;;;;;;;3.10;1.40;;;8.90;99.90;;;;;;5399666;26;20029;-85
2024/04/20 12:23:39;;;;;;;4.10;1.25;;;8.90;99.90;;;;;;5403395;26;19996;-86
2024/04/20 12:26:06;;;;;;;2.35;1.30;;;8.90;99.90;;;;;;5393355;26;20084;-86
2024/04/20 12:28:32;;;;;;;3.25;1.52;;;8.80;99.90;;;;;;5401594;26;20070;-87
2024/04/20 12:31:00;;;;;;;3.65;1.42;;;8.80;99.90;;;;;;5401485;26;20015;-86
2024/04/20 12:33:26;;;;;;;2.30;1.83;;;8.80;99.90;;;;;;5399154;26;20011;-89
2024/04/20 12:35:52;;;;;;;3.03;1.33;;;8.80;99.90;;;;;;5412787;26;19996;-89
2024/04/20 12:38:19;;;;;;;5.05;1.42;;;9.00;99.90;;;;;;5406452;26;19999;-91
2024/04/20 12:40:45;;;;;;;2.50;1.35;;;9.30;99.90;;;;;;5407140;26;20504;-88
2024/04/20 12:43:10;;;;;;;2.38;1.48;;;9.50;99.90;;;;;;5434369;26;20011;-89
2024/04/20 12:45:36;;;;;;;1.35;1.25;;;9.40;99.90;;;;;;5414266;26;20017;-89
2024/04/20 12:48:02;;;;;;;5.72;1.83;;;9.20;99.90;;;;;;5415131;26;20013;-88
2024/04/20 12:50:28;;;;;;;3.55;1.70;;;8.80;99.90;;;;;;5414519;26;20008;-91
2024/04/20 12:52:54;;;;;;;1.45;1.10;;;8.80;99.90;;;;;;5411578;26;20517;-88
2024/04/20 12:55:21;;;;;;;3.45;1.50;;;8.90;99.90;;;;;;5420816;26;20011;-90